Airfield :
LOGIN :

Register | Disclaimer

   EN    FR    IT 

 










Legend :    VFR   Marginal VFR   IFR   Intensive IFR   Very Intensive IFR
Visi :
Ceiling :
>= 8 km
>= 3000ft
5 to 8 km
1000 to 3000 ft
1500m to 5 km
500 to 1000 ft
800 to 1500m
200 to 500 ft
< 800m
< 200 ft
Symbols :   Thunderstorms  Fog  Heavy snow  Heavy precipitations  Wind > 20 kt
SIGMETs :     Misc.  Thunderstorms  Icing  Turbulence  Mountain Waves  Volcanic Ashes







- Airport Elevation : 74 ft
- IATA code : LRH
- Download approach charts


LFBH - La Rochelle Ile de Ré

CURRENT METAR :
  • 141830Z AUTO 28025KT 9999 FEW022/// SCT036/// BKN049/// ///TCU 10/07 Q1003 TEMPO 27030G50KT 1500 TSRA BKN014CB

EXPIRED METARs :
  • 141800Z AUTO 27024KT 9999 -RA FEW028/// BKN046/// OVC052/// ///TCU 10/07 Q1003 TEMPO 27030G50KT 1500 TSRA BKN014CB
  • 141730Z AUTO 27026G42KT 6000 -RA FEW017/// BKN042/// BKN060/// ///TCU 10/07 Q1003 TEMPO 1500 TSRA BKN014CB
  • 141700Z AUTO 27027G42KT 9999 FEW029 SCT041 BKN052 10/07 Q1003 TEMPO 1500 TSRA BKN014CB
  • 141630Z AUTO 28025G36KT 9999 4700 -RA SCT023/// BKN034/// BKN046/// ///TCU 10/07 Q1003 TEMPO 30025G50KT 1500 TSRA BKN014CB
  • 141600Z AUTO 27021KT 9999 SCT031 BKN040 BKN082 11/07 Q1003 TEMPO 30025G50KT 1500 TSRA BKN014CB

TAF TAF LFBH
Valid from the 14 at 18:00 until the 15 at 18:00 UTC


141700Z 1418/1518 30020G35KT 9999 BKN030
TEMPO 1418/1518 4500 SHRA BKN014TCU
TEMPO 1418/1503 27025G45KT
PROB30
TEMPO 1418/1421 27030G50KT 1500 TSRA BKN014CB
TEMPO 1509/1518 30020G35KT
ATIS : +33 5 46 00 13 92
No reported NOTAMs for that airfield.
4 SIGMETs reported for the Bordeaux FIR (LFBB) :
 
Severe turbulence
LFBB SIGMET 5 VALID 141700/142000 LFPW
LFBB BORDEAUX FIR/UIR SEV TURB OBS AT 1700Z N OF LINE N4630 W00130 - N4600 E00300 FL160/300 STNR NC=
Severe turbulence
LFBB SIGMET 4 VALID 141830/142000 LFPW
LFBB BORDEAUX FIR/UIR SEV TURB FCST WI N4600 E00300 - N4345 E00245 - N4545 E00200 - N4600 E00300 SFC/FL080 STNR NC=
Severe turbulence
LFBB SIGMET 3 VALID 141700/142000 LFPW
LFBB BORDEAUX FIR/UIR SEV TURB FCST W OF LINE N4300 W00115 - N4630 W00045 SFC/FL050 STNR NC=
Severe turbulence
LFBB SIGMET 2 VALID 141430/141830 LFPW
LFBB BORDEAUX FIR/UIR SEV TURB FCST WI N4630 E00300 - N4345 E00245 - N4600 E00130 - N4630 E00300 SFC/FL080 STNR INTSF=



MET'MAP, your aeronautical weather chart ! - Copyright ORBIFLY December 2007 - Disclaimer

ORBIFLY MET'MAP TEAM :

Programming & Development : Alexandra Zaïnal
Concept & Development : Baudouin d'Aumeries
Co-Development & Prog : Marc-Olivier Méhu
Technical & hardware support : Manuel Goepfert

Contact : metmap@orbifly.com




SOURCES & CREDITS :

   NOAA